TUI4KB EDDB-EETN
Flight info
| Callsign | TUI4KB |
|---|---|
| Flight time | 1h 26m |
| Altitude | 39000 |
| Route | GERGA4B GERGA M725 RENKI L132 DEMUR N746 GORPI DCT ANFEV DCT DIPEB DCT ETHUV DCT ADBIB DCT SULUN |
| Aircraft | B738/M-SDE2E3FGHIRWXY/LB1 |
Departure
| Time | 2026-05-05 18:09 |
|---|---|
| Airport | Berlin Brandenburg Airport (EDDB) |
Arrival
| Time | 2026-05-05 19:36 |
|---|---|
| Airport | Lennart Meri Tallinn Airport (EETN) |
| Time | Latitude | Longitude | Altitude | Speed | Heading |
|---|---|---|---|---|---|
| 2026-05-05 17:34 | 52.36365 | 13.50145 | 153 ft | 0 kts | 249° |
| 2026-05-05 17:53 | 52.36367 | 13.50150 | 154 ft | 3 kts | 248° |
| 2026-05-05 17:54 | 52.36378 | 13.50189 | 154 ft | 4 kts | 237° |
| 2026-05-05 17:54 | 52.36395 | 13.50223 | 154 ft | 4 kts | 221° |
| 2026-05-05 17:54 | 52.36417 | 13.50246 | 154 ft | 4 kts | 193° |
| 2026-05-05 17:54 | 52.36436 | 13.50246 | 154 ft | 0 kts | 158° |
| 2026-05-05 17:57 | 52.36434 | 13.50248 | 154 ft | 3 kts | 155° |
| 2026-05-05 17:58 | 52.36371 | 13.50290 | 154 ft | 13 kts | 158° |
| 2026-05-05 17:58 | 52.36291 | 13.50341 | 154 ft | 13 kts | 159° |
| 2026-05-05 17:58 | 52.36210 | 13.50391 | 154 ft | 12 kts | 158° |
| 2026-05-05 17:58 | 52.36133 | 13.50442 | 154 ft | 12 kts | 159° |
| 2026-05-05 17:59 | 52.36056 | 13.50490 | 153 ft | 12 kts | 158° |
| 2026-05-05 17:59 | 52.35982 | 13.50537 | 153 ft | 11 kts | 159° |
| 2026-05-05 17:59 | 52.35909 | 13.50582 | 153 ft | 11 kts | 158° |
| 2026-05-05 17:59 | 52.35839 | 13.50626 | 153 ft | 11 kts | 159° |
| 2026-05-05 18:00 | 52.35791 | 13.50638 | 153 ft | 7 kts | 195° |
| 2026-05-05 18:00 | 52.35754 | 13.50551 | 153 ft | 14 kts | 248° |
| 2026-05-05 18:00 | 52.35719 | 13.50402 | 153 ft | 14 kts | 249° |
| 2026-05-05 18:00 | 52.35685 | 13.50258 | 153 ft | 13 kts | 250° |
| 2026-05-05 18:01 | 52.35653 | 13.50119 | 153 ft | 13 kts | 248° |
| 2026-05-05 18:01 | 52.35616 | 13.49971 | 153 ft | 16 kts | 249° |
| 2026-05-05 18:01 | 52.35574 | 13.49792 | 153 ft | 18 kts | 249° |
| 2026-05-05 18:01 | 52.35525 | 13.49580 | 153 ft | 20 kts | 250° |
| 2026-05-05 18:02 | 52.35477 | 13.49372 | 153 ft | 19 kts | 245° |
| 2026-05-05 18:02 | 52.35427 | 13.49170 | 153 ft | 19 kts | 250° |
| 2026-05-05 18:02 | 52.35380 | 13.48974 | 153 ft | 18 kts | 249° |
| 2026-05-05 18:02 | 52.35336 | 13.48785 | 153 ft | 18 kts | 249° |
| 2026-05-05 18:03 | 52.35293 | 13.48601 | 153 ft | 17 kts | 249° |
| 2026-05-05 18:03 | 52.35247 | 13.48478 | 153 ft | 11 kts | 205° |
| 2026-05-05 18:03 | 52.35175 | 13.48507 | 153 ft | 11 kts | 157° |
| 2026-05-05 18:03 | 52.35121 | 13.48545 | 153 ft | 0 kts | 140° |
| 2026-05-05 18:04 | 52.35120 | 13.48546 | 153 ft | 1 kts | 138° |
| 2026-05-05 18:04 | 52.35109 | 13.48574 | 153 ft | 5 kts | 117° |
| 2026-05-05 18:04 | 52.35099 | 13.48648 | 153 ft | 7 kts | 99° |
| 2026-05-05 18:04 | 52.35098 | 13.48659 | 153 ft | 0 kts | 99° |
| 2026-05-05 18:08 | 52.35098 | 13.48661 | 153 ft | 2 kts | 99° |
| 2026-05-05 18:08 | 52.35084 | 13.48800 | 153 ft | 20 kts | 98° |
| 2026-05-05 18:08 | 52.35068 | 13.49017 | 153 ft | 14 kts | 96° |
| 2026-05-05 18:09 | 52.35072 | 13.49061 | 153 ft | 0 kts | 68° |
| 2026-05-05 18:09 | 52.35156 | 13.49419 | 153 ft | 81 kts | 69° |
| 2026-05-05 18:09 | 52.35468 | 13.50729 | 200 ft | 161 kts | 69° |
| 2026-05-05 18:09 | 52.35914 | 13.52594 | 945 ft | 186 kts | 68° |
| 2026-05-05 18:10 | 52.36183 | 13.54556 | 2380 ft | 179 kts | 94° |
| 2026-05-05 18:10 | 52.35574 | 13.56380 | 3221 ft | 198 kts | 141° |
| 2026-05-05 18:10 | 52.34316 | 13.57461 | 3862 ft | 209 kts | 152° |
| 2026-05-05 18:10 | 52.33036 | 13.58646 | 4507 ft | 213 kts | 148° |
| 2026-05-05 18:11 | 52.31780 | 13.59969 | 4902 ft | 216 kts | 145° |
| 2026-05-05 18:11 | 52.30843 | 13.61824 | 4893 ft | 221 kts | 105° |
| 2026-05-05 18:11 | 52.30923 | 13.64387 | 4961 ft | 235 kts | 70° |
| 2026-05-05 18:11 | 52.31548 | 13.66919 | 4946 ft | 246 kts | 62° |
| 2026-05-05 18:12 | 52.32748 | 13.68897 | 4942 ft | 250 kts | 28° |
| 2026-05-05 18:12 | 52.34351 | 13.70057 | 4949 ft | 260 kts | 22° |
| 2026-05-05 18:12 | 52.36083 | 13.71205 | 5439 ft | 274 kts | 22° |
| 2026-05-05 18:12 | 52.37847 | 13.72393 | 6391 ft | 276 kts | 21° |
| 2026-05-05 18:13 | 52.39635 | 13.73629 | 7253 ft | 281 kts | 21° |
| 2026-05-05 18:13 | 52.41458 | 13.74920 | 8082 ft | 288 kts | 22° |
| 2026-05-05 18:13 | 52.43307 | 13.76254 | 8955 ft | 292 kts | 22° |
| 2026-05-05 18:13 | 52.45182 | 13.77627 | 9826 ft | 297 kts | 23° |
| 2026-05-05 18:14 | 52.47108 | 13.79050 | 10379 ft | 313 kts | 23° |
| 2026-05-05 18:14 | 52.49178 | 13.80590 | 10664 ft | 337 kts | 23° |
| 2026-05-05 18:14 | 52.51346 | 13.82214 | 11319 ft | 346 kts | 23° |
| 2026-05-05 18:14 | 52.53519 | 13.83851 | 12111 ft | 350 kts | 23° |
| 2026-05-05 18:15 | 52.55743 | 13.85533 | 12935 ft | 354 kts | 23° |
| 2026-05-05 18:15 | 52.58035 | 13.87269 | 13711 ft | 360 kts | 23° |
| 2026-05-05 18:15 | 52.60324 | 13.89006 | 14416 ft | 365 kts | 23° |
| 2026-05-05 18:15 | 52.62605 | 13.90739 | 15172 ft | 367 kts | 23° |
| 2026-05-05 18:16 | 52.64936 | 13.92513 | 15922 ft | 371 kts | 23° |
| 2026-05-05 18:16 | 52.67298 | 13.94313 | 16643 ft | 375 kts | 23° |
| 2026-05-05 18:16 | 52.69682 | 13.96130 | 17357 ft | 380 kts | 23° |
| 2026-05-05 18:16 | 52.72094 | 13.97972 | 18058 ft | 384 kts | 23° |
| 2026-05-05 18:17 | 52.74531 | 13.99835 | 18658 ft | 389 kts | 23° |
| 2026-05-05 18:17 | 52.77006 | 14.01730 | 19236 ft | 394 kts | 23° |
| 2026-05-05 18:17 | 52.79499 | 14.03640 | 19813 ft | 398 kts | 23° |
| 2026-05-05 18:17 | 52.82032 | 14.05584 | 20411 ft | 402 kts | 23° |
| 2026-05-05 18:18 | 52.84583 | 14.07544 | 21002 ft | 406 kts | 23° |
| 2026-05-05 18:18 | 52.87164 | 14.09531 | 21568 ft | 411 kts | 22° |
| 2026-05-05 18:18 | 52.89770 | 14.11538 | 22117 ft | 416 kts | 22° |
| 2026-05-05 18:18 | 52.92400 | 14.13568 | 22705 ft | 419 kts | 22° |
| 2026-05-05 18:19 | 52.95055 | 14.15619 | 23270 ft | 423 kts | 22° |
| 2026-05-05 18:19 | 52.97741 | 14.17697 | 23713 ft | 428 kts | 22° |
| 2026-05-05 18:19 | 53.00449 | 14.19795 | 24173 ft | 431 kts | 22° |
| 2026-05-05 18:19 | 53.03153 | 14.21893 | 24644 ft | 434 kts | 22° |
| 2026-05-05 18:20 | 53.05885 | 14.24016 | 25117 ft | 436 kts | 22° |
| 2026-05-05 18:20 | 53.08647 | 14.26165 | 25569 ft | 439 kts | 22° |
| 2026-05-05 18:20 | 53.11431 | 14.28334 | 26000 ft | 443 kts | 22° |
| 2026-05-05 18:20 | 53.14232 | 14.30519 | 26429 ft | 447 kts | 22° |
| 2026-05-05 18:21 | 53.17062 | 14.32732 | 26851 ft | 450 kts | 22° |
| 2026-05-05 18:21 | 53.19912 | 14.34962 | 27269 ft | 453 kts | 22° |
| 2026-05-05 18:21 | 53.22777 | 14.37208 | 27675 ft | 456 kts | 21° |
| 2026-05-05 18:21 | 53.25654 | 14.39466 | 28068 ft | 459 kts | 21° |
| 2026-05-05 18:22 | 53.28568 | 14.41749 | 28464 ft | 462 kts | 21° |
| 2026-05-05 18:22 | 53.31474 | 14.43931 | 28835 ft | 465 kts | 20° |
| 2026-05-05 18:22 | 53.34449 | 14.46095 | 29210 ft | 468 kts | 19° |
| 2026-05-05 18:22 | 53.37448 | 14.48255 | 29594 ft | 470 kts | 19° |
| 2026-05-05 18:23 | 53.40465 | 14.50432 | 29913 ft | 474 kts | 19° |
| 2026-05-05 18:23 | 53.43497 | 14.52632 | 30211 ft | 477 kts | 19° |
| 2026-05-05 18:23 | 53.46559 | 14.54867 | 30540 ft | 479 kts | 19° |
| 2026-05-05 18:23 | 53.49616 | 14.57113 | 30870 ft | 480 kts | 19° |
| 2026-05-05 18:24 | 53.52682 | 14.59373 | 31179 ft | 482 kts | 19° |
| 2026-05-05 18:24 | 53.55761 | 14.61648 | 31458 ft | 484 kts | 19° |
| 2026-05-05 18:24 | 53.58851 | 14.63935 | 31737 ft | 486 kts | 19° |
| 2026-05-05 18:24 | 53.61955 | 14.66236 | 32100 ft | 486 kts | 18° |
| 2026-05-05 18:25 | 53.65046 | 14.68533 | 32498 ft | 485 kts | 18° |
| 2026-05-05 18:25 | 53.66047 | 14.69278 | 32637 ft | 484 kts | 18° |
| 2026-05-05 18:25 | 53.71165 | 14.73090 | 33330 ft | 481 kts | 18° |
| 2026-05-05 18:25 | 53.74254 | 14.75396 | 33812 ft | 478 kts | 18° |
| 2026-05-05 18:26 | 53.77293 | 14.77666 | 34159 ft | 477 kts | 18° |
| 2026-05-05 18:26 | 53.80290 | 14.79906 | 34433 ft | 477 kts | 18° |
| 2026-05-05 18:26 | 53.83325 | 14.82177 | 34720 ft | 477 kts | 18° |
| 2026-05-05 18:26 | 53.86363 | 14.84456 | 34974 ft | 478 kts | 18° |
| 2026-05-05 18:27 | 53.89410 | 14.86744 | 35195 ft | 479 kts | 18° |
| 2026-05-05 18:27 | 53.92458 | 14.89039 | 35506 ft | 478 kts | 18° |
| 2026-05-05 18:27 | 53.95495 | 14.91331 | 35858 ft | 476 kts | 18° |
| 2026-05-05 18:27 | 53.98522 | 14.93618 | 36165 ft | 475 kts | 18° |
| 2026-05-05 18:28 | 54.04564 | 14.98190 | 36712 ft | 475 kts | 19° |
| 2026-05-05 18:28 | 54.07573 | 15.00473 | 37012 ft | 474 kts | 19° |
| 2026-05-05 18:28 | 54.10589 | 15.02758 | 37189 ft | 476 kts | 19° |
| 2026-05-05 18:29 | 54.13623 | 15.05049 | 37394 ft | 476 kts | 19° |
| 2026-05-05 18:29 | 54.16649 | 15.07335 | 37681 ft | 475 kts | 19° |
| 2026-05-05 18:29 | 54.19667 | 15.09619 | 37994 ft | 473 kts | 19° |
| 2026-05-05 18:29 | 54.22683 | 15.11907 | 38256 ft | 473 kts | 19° |
| 2026-05-05 18:30 | 54.25691 | 15.14191 | 38458 ft | 473 kts | 19° |
| 2026-05-05 18:30 | 54.28703 | 15.16483 | 38640 ft | 473 kts | 19° |
| 2026-05-05 18:30 | 54.31712 | 15.18778 | 38841 ft | 472 kts | 19° |
| 2026-05-05 18:30 | 54.34714 | 15.21071 | 38903 ft | 474 kts | 19° |
| 2026-05-05 18:31 | 54.40746 | 15.25690 | 38910 ft | 473 kts | 19° |
| 2026-05-05 18:31 | 54.45739 | 15.29542 | 38904 ft | 471 kts | 20° |
| 2026-05-05 18:32 | 54.51697 | 15.34156 | 38911 ft | 468 kts | 20° |
| 2026-05-05 18:32 | 54.57584 | 15.38728 | 38924 ft | 466 kts | 20° |
| 2026-05-05 18:33 | 54.63492 | 15.43328 | 38916 ft | 465 kts | 20° |
| 2026-05-05 18:33 | 54.69348 | 15.47901 | 38914 ft | 464 kts | 20° |
| 2026-05-05 18:34 | 54.75228 | 15.52509 | 38919 ft | 464 kts | 20° |
| 2026-05-05 18:34 | 54.81120 | 15.57142 | 38929 ft | 465 kts | 20° |
| 2026-05-05 18:35 | 54.87029 | 15.61801 | 38921 ft | 467 kts | 20° |
| 2026-05-05 18:35 | 54.92716 | 15.67385 | 38920 ft | 475 kts | 35° |
| 2026-05-05 18:36 | 54.97503 | 15.75425 | 38925 ft | 480 kts | 43° |
| 2026-05-05 18:36 | 55.02118 | 15.83876 | 38919 ft | 482 kts | 44° |
| 2026-05-05 18:37 | 55.06763 | 15.92328 | 38921 ft | 483 kts | 43° |
| 2026-05-05 18:37 | 55.11447 | 16.00770 | 38919 ft | 484 kts | 43° |
| 2026-05-05 18:38 | 55.16142 | 16.09223 | 38910 ft | 484 kts | 43° |
| 2026-05-05 18:38 | 55.20828 | 16.17691 | 38919 ft | 484 kts | 43° |
| 2026-05-05 18:39 | 55.25481 | 16.26134 | 38933 ft | 484 kts | 43° |
| 2026-05-05 18:39 | 55.30149 | 16.34637 | 38920 ft | 483 kts | 43° |
| 2026-05-05 18:40 | 55.34801 | 16.43142 | 38917 ft | 482 kts | 43° |
| 2026-05-05 18:40 | 55.39440 | 16.51656 | 38912 ft | 482 kts | 43° |
| 2026-05-05 18:41 | 55.44071 | 16.60183 | 38922 ft | 481 kts | 44° |
| 2026-05-05 18:41 | 55.48685 | 16.68711 | 38924 ft | 480 kts | 44° |
| 2026-05-05 18:42 | 55.53289 | 16.77251 | 38917 ft | 480 kts | 44° |
| 2026-05-05 18:42 | 55.57883 | 16.85803 | 38918 ft | 480 kts | 44° |
| 2026-05-05 18:43 | 55.62476 | 16.94387 | 38918 ft | 479 kts | 44° |
| 2026-05-05 18:43 | 55.67057 | 17.02977 | 38927 ft | 479 kts | 44° |
| 2026-05-05 18:44 | 55.71634 | 17.11592 | 38913 ft | 480 kts | 44° |
| 2026-05-05 18:44 | 55.76206 | 17.20227 | 38917 ft | 480 kts | 44° |
| 2026-05-05 18:45 | 55.80773 | 17.28781 | 38914 ft | 480 kts | 43° |
| 2026-05-05 18:45 | 55.85458 | 17.37242 | 38917 ft | 480 kts | 42° |
| 2026-05-05 18:46 | 55.90158 | 17.45727 | 38927 ft | 481 kts | 43° |
| 2026-05-05 18:46 | 55.94840 | 17.54257 | 38922 ft | 482 kts | 43° |
| 2026-05-05 18:47 | 55.99520 | 17.62838 | 38920 ft | 482 kts | 43° |
| 2026-05-05 18:47 | 56.04195 | 17.71446 | 38918 ft | 483 kts | 43° |
| 2026-05-05 18:48 | 56.08877 | 17.80093 | 38923 ft | 483 kts | 43° |
| 2026-05-05 18:48 | 56.13558 | 17.88772 | 38932 ft | 484 kts | 43° |
| 2026-05-05 18:49 | 56.18207 | 17.97419 | 38909 ft | 485 kts | 43° |
| 2026-05-05 18:49 | 56.22813 | 18.06381 | 38929 ft | 485 kts | 45° |
| 2026-05-05 18:50 | 56.27278 | 18.15395 | 38922 ft | 486 kts | 46° |
| 2026-05-05 18:50 | 56.31776 | 18.24498 | 38933 ft | 486 kts | 45° |
| 2026-05-05 18:51 | 56.36285 | 18.33601 | 38928 ft | 487 kts | 45° |
| 2026-05-05 18:51 | 56.40795 | 18.42716 | 38923 ft | 487 kts | 45° |
| 2026-05-05 18:52 | 56.45301 | 18.51854 | 38920 ft | 487 kts | 45° |
| 2026-05-05 18:52 | 56.49805 | 18.61026 | 38922 ft | 487 kts | 46° |
| 2026-05-05 18:53 | 56.54297 | 18.70210 | 38933 ft | 487 kts | 46° |
| 2026-05-05 18:53 | 56.58792 | 18.79437 | 38927 ft | 487 kts | 46° |
| 2026-05-05 18:54 | 56.63274 | 18.88673 | 38921 ft | 487 kts | 46° |
| 2026-05-05 18:54 | 56.67720 | 18.97873 | 38916 ft | 487 kts | 46° |
| 2026-05-05 18:55 | 56.72178 | 19.07130 | 38919 ft | 486 kts | 46° |
| 2026-05-05 18:55 | 56.76633 | 19.16417 | 38929 ft | 486 kts | 46° |
| 2026-05-05 18:56 | 56.81079 | 19.25723 | 38923 ft | 487 kts | 46° |
| 2026-05-05 18:56 | 56.85521 | 19.35057 | 38920 ft | 487 kts | 46° |
| 2026-05-05 18:57 | 56.89956 | 19.44413 | 38920 ft | 487 kts | 46° |
| 2026-05-05 18:57 | 56.94385 | 19.53793 | 38937 ft | 487 kts | 46° |
| 2026-05-05 18:58 | 56.98817 | 19.63218 | 38925 ft | 488 kts | 46° |
| 2026-05-05 18:58 | 57.03238 | 19.72656 | 38920 ft | 488 kts | 46° |
| 2026-05-05 18:59 | 57.07668 | 19.82151 | 38918 ft | 489 kts | 46° |
| 2026-05-05 18:59 | 57.12058 | 19.91601 | 38906 ft | 489 kts | 47° |
| 2026-05-05 19:00 | 57.16469 | 20.01131 | 38916 ft | 489 kts | 47° |
| 2026-05-05 19:00 | 57.20879 | 20.10699 | 38921 ft | 489 kts | 47° |
| 2026-05-05 19:01 | 57.25280 | 20.20285 | 38917 ft | 489 kts | 47° |
| 2026-05-05 19:01 | 57.29680 | 20.29908 | 38915 ft | 490 kts | 47° |
| 2026-05-05 19:02 | 57.34073 | 20.39555 | 38915 ft | 490 kts | 47° |
| 2026-05-05 19:02 | 57.38454 | 20.49216 | 38923 ft | 490 kts | 47° |
| 2026-05-05 19:03 | 57.42836 | 20.58916 | 38916 ft | 491 kts | 47° |
| 2026-05-05 19:03 | 57.47215 | 20.68652 | 38912 ft | 491 kts | 47° |
| 2026-05-05 19:04 | 57.51555 | 20.78340 | 38913 ft | 491 kts | 47° |
| 2026-05-05 19:04 | 57.55920 | 20.88124 | 38912 ft | 491 kts | 47° |
| 2026-05-05 19:05 | 57.60273 | 20.97923 | 38923 ft | 491 kts | 47° |
| 2026-05-05 19:05 | 57.64621 | 21.07748 | 38913 ft | 491 kts | 48° |
| 2026-05-05 19:06 | 57.68967 | 21.17609 | 38911 ft | 491 kts | 48° |
| 2026-05-05 19:06 | 57.73275 | 21.27426 | 38913 ft | 491 kts | 48° |
| 2026-05-05 19:07 | 57.76912 | 21.35746 | 38531 ft | 497 kts | 48° |
| 2026-05-05 19:07 | 57.79842 | 21.42467 | 37755 ft | 497 kts | 48° |
| 2026-05-05 19:07 | 57.81992 | 21.47415 | 37177 ft | 496 kts | 48° |
| 2026-05-05 19:08 | 57.84165 | 21.52427 | 36611 ft | 495 kts | 48° |
| 2026-05-05 19:08 | 57.86333 | 21.57437 | 36141 ft | 492 kts | 48° |
| 2026-05-05 19:08 | 57.88480 | 21.62410 | 35736 ft | 488 kts | 48° |
| 2026-05-05 19:08 | 57.90610 | 21.67354 | 35316 ft | 485 kts | 48° |
| 2026-05-05 19:09 | 57.92722 | 21.72265 | 34909 ft | 481 kts | 48° |
| 2026-05-05 19:09 | 57.94826 | 21.77167 | 34500 ft | 479 kts | 48° |
| 2026-05-05 19:09 | 57.96913 | 21.82037 | 34067 ft | 477 kts | 48° |
| 2026-05-05 19:09 | 57.98987 | 21.86887 | 33610 ft | 474 kts | 48° |
| 2026-05-05 19:10 | 58.01051 | 21.91727 | 33187 ft | 472 kts | 48° |
| 2026-05-05 19:10 | 58.03102 | 21.96546 | 32684 ft | 470 kts | 48° |
| 2026-05-05 19:10 | 58.05137 | 22.01342 | 32247 ft | 467 kts | 48° |
| 2026-05-05 19:10 | 58.07158 | 22.06120 | 31847 ft | 463 kts | 48° |
| 2026-05-05 19:11 | 58.09162 | 22.10867 | 31450 ft | 460 kts | 48° |
| 2026-05-05 19:11 | 58.11154 | 22.15593 | 31056 ft | 458 kts | 48° |
| 2026-05-05 19:11 | 58.13128 | 22.20287 | 30669 ft | 455 kts | 48° |
| 2026-05-05 19:11 | 58.15089 | 22.24959 | 30281 ft | 453 kts | 48° |
| 2026-05-05 19:12 | 58.17023 | 22.29574 | 29888 ft | 450 kts | 48° |
| 2026-05-05 19:12 | 58.18993 | 22.34278 | 29459 ft | 464 kts | 48° |
| 2026-05-05 19:12 | 58.21045 | 22.39177 | 29056 ft | 485 kts | 48° |
| 2026-05-05 19:12 | 58.23184 | 22.44297 | 28513 ft | 499 kts | 49° |
| 2026-05-05 19:13 | 58.25329 | 22.49458 | 28040 ft | 498 kts | 49° |
| 2026-05-05 19:13 | 58.27493 | 22.54688 | 27579 ft | 494 kts | 49° |
| 2026-05-05 19:13 | 58.29582 | 22.59748 | 27125 ft | 492 kts | 49° |
| 2026-05-05 19:13 | 58.31686 | 22.64855 | 26681 ft | 489 kts | 49° |
| 2026-05-05 19:14 | 58.33102 | 22.68297 | 26376 ft | 488 kts | 49° |
| 2026-05-05 19:14 | 58.35184 | 22.73361 | 25930 ft | 486 kts | 49° |
| 2026-05-05 19:14 | 58.37261 | 22.78422 | 25469 ft | 484 kts | 49° |
| 2026-05-05 19:14 | 58.39327 | 22.83466 | 25005 ft | 482 kts | 49° |
| 2026-05-05 19:15 | 58.42053 | 22.90136 | 24447 ft | 481 kts | 49° |
| 2026-05-05 19:15 | 58.43442 | 22.93540 | 24112 ft | 481 kts | 49° |
| 2026-05-05 19:15 | 58.45491 | 22.98572 | 23641 ft | 479 kts | 49° |
| 2026-05-05 19:15 | 58.47528 | 23.03589 | 23112 ft | 477 kts | 49° |
| 2026-05-05 19:16 | 58.49522 | 23.08511 | 22655 ft | 470 kts | 49° |
| 2026-05-05 19:16 | 58.51536 | 23.13495 | 22207 ft | 465 kts | 49° |
| 2026-05-05 19:16 | 58.53478 | 23.18311 | 21774 ft | 461 kts | 49° |
| 2026-05-05 19:16 | 58.55425 | 23.23145 | 21350 ft | 456 kts | 49° |
| 2026-05-05 19:17 | 58.57356 | 23.27950 | 20928 ft | 452 kts | 49° |
| 2026-05-05 19:17 | 58.59266 | 23.32710 | 20507 ft | 448 kts | 49° |
| 2026-05-05 19:17 | 58.61143 | 23.37401 | 20084 ft | 439 kts | 49° |
| 2026-05-05 19:17 | 58.62976 | 23.41992 | 19670 ft | 429 kts | 49° |
| 2026-05-05 19:18 | 58.64780 | 23.46519 | 19253 ft | 425 kts | 49° |
| 2026-05-05 19:18 | 58.66571 | 23.51016 | 18843 ft | 422 kts | 49° |
| 2026-05-05 19:18 | 58.68347 | 23.55484 | 18436 ft | 417 kts | 49° |
| 2026-05-05 19:18 | 58.70083 | 23.59862 | 18030 ft | 409 kts | 49° |
| 2026-05-05 19:19 | 58.71801 | 23.64204 | 17618 ft | 406 kts | 49° |
| 2026-05-05 19:19 | 58.73516 | 23.68541 | 17217 ft | 404 kts | 49° |
| 2026-05-05 19:19 | 58.75205 | 23.72820 | 16829 ft | 401 kts | 49° |
| 2026-05-05 19:19 | 58.76887 | 23.77093 | 16446 ft | 398 kts | 49° |
| 2026-05-05 19:20 | 58.78555 | 23.81337 | 16064 ft | 395 kts | 50° |
| 2026-05-05 19:20 | 58.80209 | 23.85553 | 15693 ft | 393 kts | 50° |
| 2026-05-05 19:20 | 58.81854 | 23.89753 | 15354 ft | 390 kts | 50° |
| 2026-05-05 19:20 | 58.83486 | 23.93928 | 14939 ft | 390 kts | 50° |
| 2026-05-05 19:21 | 58.85099 | 23.98060 | 14558 ft | 388 kts | 50° |
| 2026-05-05 19:21 | 58.86740 | 24.02274 | 14174 ft | 387 kts | 50° |
| 2026-05-05 19:21 | 58.88330 | 24.06361 | 13810 ft | 385 kts | 50° |
| 2026-05-05 19:21 | 58.89935 | 24.10499 | 13405 ft | 383 kts | 50° |
| 2026-05-05 19:22 | 58.91527 | 24.14608 | 13027 ft | 380 kts | 50° |
| 2026-05-05 19:22 | 58.93103 | 24.18683 | 12634 ft | 376 kts | 51° |
| 2026-05-05 19:22 | 58.94664 | 24.22729 | 12273 ft | 372 kts | 51° |
| 2026-05-05 19:22 | 58.96206 | 24.26729 | 11914 ft | 369 kts | 51° |
| 2026-05-05 19:23 | 58.97727 | 24.30683 | 11655 ft | 362 kts | 51° |
| 2026-05-05 19:23 | 58.99226 | 24.34586 | 11322 ft | 359 kts | 51° |
| 2026-05-05 19:23 | 59.00701 | 24.38433 | 10995 ft | 351 kts | 51° |
| 2026-05-05 19:23 | 59.02146 | 24.42207 | 10649 ft | 346 kts | 51° |
| 2026-05-05 19:24 | 59.03572 | 24.45938 | 10267 ft | 341 kts | 51° |
| 2026-05-05 19:24 | 59.04970 | 24.49600 | 9897 ft | 335 kts | 51° |
| 2026-05-05 19:24 | 59.06356 | 24.53235 | 9514 ft | 333 kts | 51° |
| 2026-05-05 19:24 | 59.07722 | 24.56827 | 9107 ft | 327 kts | 51° |
| 2026-05-05 19:25 | 59.09064 | 24.60359 | 8711 ft | 321 kts | 51° |
| 2026-05-05 19:25 | 59.10375 | 24.63816 | 8333 ft | 313 kts | 51° |
| 2026-05-05 19:25 | 59.11655 | 24.67195 | 7962 ft | 306 kts | 51° |
| 2026-05-05 19:25 | 59.12890 | 24.70462 | 7603 ft | 301 kts | 51° |
| 2026-05-05 19:26 | 59.14134 | 24.73750 | 7262 ft | 302 kts | 51° |
| 2026-05-05 19:26 | 59.15377 | 24.77045 | 6914 ft | 302 kts | 51° |
| 2026-05-05 19:26 | 59.16605 | 24.80305 | 6551 ft | 294 kts | 51° |
| 2026-05-05 19:26 | 59.17801 | 24.83487 | 6146 ft | 288 kts | 51° |
| 2026-05-05 19:27 | 59.18972 | 24.86602 | 5711 ft | 282 kts | 51° |
| 2026-05-05 19:27 | 59.20120 | 24.89662 | 5279 ft | 277 kts | 51° |
| 2026-05-05 19:27 | 59.21248 | 24.92673 | 5026 ft | 275 kts | 51° |
| 2026-05-05 19:27 | 59.22393 | 24.95726 | 4746 ft | 282 kts | 51° |
| 2026-05-05 19:28 | 59.23525 | 24.98844 | 4340 ft | 278 kts | 52° |
| 2026-05-05 19:28 | 59.24598 | 25.01922 | 3940 ft | 271 kts | 52° |
| 2026-05-05 19:28 | 59.25627 | 25.04967 | 3539 ft | 266 kts | 53° |
| 2026-05-05 19:28 | 59.26619 | 25.07983 | 3149 ft | 261 kts | 53° |
| 2026-05-05 19:29 | 59.27587 | 25.10954 | 2773 ft | 256 kts | 54° |
| 2026-05-05 19:29 | 59.28530 | 25.13866 | 2426 ft | 251 kts | 54° |
| 2026-05-05 19:29 | 59.29510 | 25.16654 | 2221 ft | 243 kts | 41° |
| 2026-05-05 19:29 | 59.30890 | 25.18282 | 2204 ft | 228 kts | 9° |
| 2026-05-05 19:30 | 59.32442 | 25.18707 | 2203 ft | 225 kts | 1° |
| 2026-05-05 19:30 | 59.34002 | 25.18958 | 2195 ft | 226 kts | 0° |
| 2026-05-05 19:30 | 59.35551 | 25.19190 | 2185 ft | 220 kts | 0° |
| 2026-05-05 19:30 | 59.37038 | 25.19417 | 2177 ft | 208 kts | 0° |
| 2026-05-05 19:31 | 59.38426 | 25.19580 | 2188 ft | 190 kts | 351° |
| 2026-05-05 19:31 | 59.39541 | 25.18658 | 2195 ft | 168 kts | 313° |
| 2026-05-05 19:31 | 59.40302 | 25.16936 | 2208 ft | 167 kts | 310° |
| 2026-05-05 19:31 | 59.41004 | 25.15137 | 2185 ft | 166 kts | 293° |
| 2026-05-05 19:32 | 59.41176 | 25.12931 | 2208 ft | 164 kts | 277° |
| 2026-05-05 19:32 | 59.41256 | 25.10685 | 2205 ft | 166 kts | 275° |
| 2026-05-05 19:32 | 59.41283 | 25.08399 | 2208 ft | 168 kts | 273° |
| 2026-05-05 19:32 | 59.41290 | 25.06093 | 2136 ft | 171 kts | 273° |
| 2026-05-05 19:33 | 59.41291 | 25.03755 | 1924 ft | 170 kts | 273° |
| 2026-05-05 19:33 | 59.41293 | 25.01460 | 1691 ft | 166 kts | 272° |
| 2026-05-05 19:33 | 59.41295 | 24.99305 | 1469 ft | 155 kts | 273° |
| 2026-05-05 19:33 | 59.41298 | 24.97252 | 1256 ft | 145 kts | 272° |
| 2026-05-05 19:34 | 59.41300 | 24.95360 | 1099 ft | 134 kts | 272° |
| 2026-05-05 19:34 | 59.41299 | 24.93605 | 966 ft | 127 kts | 271° |
| 2026-05-05 19:34 | 59.41305 | 24.91862 | 750 ft | 129 kts | 271° |
| 2026-05-05 19:35 | 59.41303 | 24.88323 | 426 ft | 126 kts | 269° |
| 2026-05-05 19:35 | 59.41308 | 24.86610 | 262 ft | 125 kts | 270° |
| 2026-05-05 19:35 | 59.41315 | 24.84946 | 140 ft | 112 kts | 271° |
| 2026-05-05 19:35 | 59.41324 | 24.83853 | 141 ft | 51 kts | 271° |
| 2026-05-05 19:36 | 59.41329 | 24.83169 | 139 ft | 47 kts | 271° |
| 2026-05-05 19:36 | 59.41380 | 24.82597 | 137 ft | 40 kts | 297° |
| 2026-05-05 19:36 | 59.41441 | 24.82392 | 138 ft | 7 kts | 301° |
| 2026-05-05 19:36 | 59.41466 | 24.82309 | 138 ft | 7 kts | 300° |
| 2026-05-05 19:37 | 59.41490 | 24.82225 | 138 ft | 7 kts | 294° |
| 2026-05-05 19:37 | 59.41501 | 24.82134 | 138 ft | 7 kts | 276° |
| 2026-05-05 19:37 | 59.41502 | 24.82041 | 138 ft | 7 kts | 269° |
| 2026-05-05 19:37 | 59.41501 | 24.81921 | 138 ft | 11 kts | 271° |
| 2026-05-05 19:38 | 59.41504 | 24.81741 | 138 ft | 14 kts | 271° |
| 2026-05-05 19:38 | 59.41503 | 24.81553 | 138 ft | 13 kts | 269° |
| 2026-05-05 19:38 | 59.41503 | 24.81374 | 138 ft | 13 kts | 269° |
| 2026-05-05 19:38 | 59.41516 | 24.81211 | 138 ft | 12 kts | 303° |
| 2026-05-05 19:39 | 59.41581 | 24.81179 | 138 ft | 10 kts | 1° |
| 2026-05-05 19:39 | 59.41641 | 24.81176 | 138 ft | 6 kts | 342° |
| 2026-05-05 19:39 | 59.41665 | 24.81129 | 138 ft | 4 kts | 293° |
| 2026-05-05 19:39 | 59.41666 | 24.81064 | 138 ft | 6 kts | 269° |
| 2026-05-05 19:40 | 59.41665 | 24.80964 | 138 ft | 8 kts | 270° |
| 2026-05-05 19:40 | 59.41664 | 24.80857 | 138 ft | 8 kts | 268° |
| 2026-05-05 19:40 | 59.41664 | 24.80749 | 137 ft | 9 kts | 270° |
| 2026-05-05 19:40 | 59.41664 | 24.80613 | 137 ft | 11 kts | 270° |
| 2026-05-05 19:41 | 59.41624 | 24.80516 | 137 ft | 10 kts | 193° |
| 2026-05-05 19:41 | 59.41552 | 24.80501 | 137 ft | 10 kts | 198° |
| 2026-05-05 19:41 | 59.41524 | 24.80387 | 137 ft | 10 kts | 278° |
| 2026-05-05 19:41 | 59.41528 | 24.80270 | 137 ft | 8 kts | 273° |
| 2026-05-05 19:42 | 59.41529 | 24.80172 | 137 ft | 3 kts | 272° |
| 2026-05-05 19:42 | 59.41543 | 24.80131 | 137 ft | 5 kts | 331° |
| 2026-05-05 19:42 | 59.41575 | 24.80133 | 137 ft | 2 kts | 3° |
| 2026-05-05 19:42 | 59.41578 | 24.80133 | 137 ft | 0 kts | 2° |